Time;durP1;ratioP1;P1;durP2;ratioP2;P2;SDS_P1;SDS_P2;PMS_P1;PMS_P2;Temp;Humidity;BMP_temperature;BMP_pressure;BME280_temperature;BME280_humidity;BME280_pressure;Samples;Min_cycle;Max_cycle;Signal;HPM_P1;HPM_P2
2023/06/21 00:00:18;;;;;;;6.97;6.27;;;;;;;;;;5053236;28;20204;-53
2023/06/21 00:02:47;;;;;;;8.75;7.95;;;;;;;;;;5051610;28;20448;-51
2023/06/21 00:05:13;;;;;;;7.87;7.17;;;;;;;;;;5052804;28;20208;-53
2023/06/21 00:07:40;;;;;;;9.57;8.57;;;;;;;;;;5051515;28;20431;-53
2023/06/21 00:10:08;;;;;;;9.43;8.52;;;;;;;;;;5051313;28;20489;-52
2023/06/21 00:12:34;;;;;;;9.52;8.63;;;;;;;;;;5051488;28;20738;-53
2023/06/21 00:15:00;;;;;;;9.82;9.02;;;;;;;;;;5051338;28;20409;-54
2023/06/21 00:17:26;;;;;;;10.13;9.00;;;;;;;;;;5052654;28;20279;-54
2023/06/21 00:19:54;;;;;;;8.93;7.70;;;;;;;;;;5052509;28;20291;-54
2023/06/21 00:22:21;;;;;;;8.60;7.77;;;;;;;;;;5052458;28;20295;-53
2023/06/21 00:24:48;;;;;;;9.50;8.60;;;;;;;;;;5050973;28;20459;-53
2023/06/21 00:27:15;;;;;;;9.43;8.53;;;;;;;;;;5061794;28;20200;-54
2023/06/21 00:29:41;;;;;;;10.38;9.57;;;;;;;;;;5070276;28;20430;-53
2023/06/21 00:32:07;;;;;;;10.20;9.30;;;;;;;;;;5053320;28;20425;-53
2023/06/21 00:34:34;;;;;;;10.65;9.63;;;;;;;;;;5051084;28;20419;-53
2023/06/21 00:37:03;;;;;;;8.90;8.10;;;;;;;;;;5050904;28;20424;-54
2023/06/21 00:39:29;;;;;;;8.30;7.60;;;;;;;;;;5058839;28;20955;-53
2023/06/21 00:41:55;;;;;;;7.90;7.20;;;;;;;;;;5070989;28;20392;-53
2023/06/21 00:44:22;;;;;;;8.68;7.88;;;;;;;;;;5069498;28;20448;-54
2023/06/21 00:46:52;;;;;;;7.32;6.70;;;;;;;;;;5050382;28;20832;-54
2023/06/21 00:49:18;;;;;;;8.33;7.63;;;;;;;;;;5050655;28;20405;-53
2023/06/21 00:51:44;;;;;;;7.57;6.93;;;;;;;;;;5050672;28;20440;-53
2023/06/21 00:54:16;;;;;;;8.13;7.43;;;;;;;;;;5051949;28;20196;-54
2023/06/21 00:56:42;;;;;;;8.60;7.80;;;;;;;;;;5050741;28;20424;-53
2023/06/21 00:59:09;;;;;;;9.23;6.97;;;;;;;;;;5051746;28;20200;-54
2023/06/21 01:01:37;;;;;;;8.00;6.93;;;;;;;;;;5051782;28;20559;-52
2023/06/21 01:04:03;;;;;;;7.68;7.00;;;;;;;;;;5050123;28;20455;-54
2023/06/21 01:06:34;;;;;;;7.10;6.40;;;;;;;;;;5051679;28;20198;-53
2023/06/21 01:09:03;;;;;;;6.83;6.23;;;;;;;;;;5058505;28;20221;-54
2023/06/21 01:11:31;;;;;;;7.63;6.83;;;;;;;;;;5070900;28;20245;-53
2023/06/21 01:14:02;;;;;;;7.00;6.30;;;;;;;;;;5071610;28;20217;-53
2023/06/21 01:16:40;;;;;;;7.90;7.20;;;;;;;;;;5071731;28;20242;-53
2023/06/21 01:19:14;;;;;;;7.00;6.30;;;;;;;;;;5071561;28;20235;-53
2023/06/21 01:21:40;;;;;;;8.10;7.40;;;;;;;;;;5068732;28;20285;-53
2023/06/21 01:24:14;;;;;;;8.70;7.90;;;;;;;;;;5071346;28;20226;-53
2023/06/21 01:26:48;;;;;;;8.10;7.30;;;;;;;;;;5071391;28;20655;-52
2023/06/21 01:29:17;;;;;;;8.00;7.30;;;;;;;;;;5071446;28;20192;-53
2023/06/21 01:31:45;;;;;;;9.47;8.47;;;;;;;;;;5071457;28;20219;-53
2023/06/21 01:34:12;;;;;;;11.00;9.97;;;;;;;;;;5067424;28;20837;-53
2023/06/21 01:36:39;;;;;;;10.23;9.33;;;;;;;;;;5071421;28;20206;-53
2023/06/21 01:39:08;;;;;;;8.87;7.97;;;;;;;;;;5071347;28;20195;-53
2023/06/21 01:41:35;;;;;;;9.37;8.57;;;;;;;;;;5053370;28;20204;-53
2023/06/21 01:44:01;;;;;;;9.70;8.80;;;;;;;;;;5051169;28;20225;-53
2023/06/21 01:46:28;;;;;;;8.60;7.87;;;;;;;;;;5051341;28;20260;-52
2023/06/21 01:48:55;;;;;;;9.93;9.00;;;;;;;;;;5051092;28;20577;-53
2023/06/21 01:51:21;;;;;;;10.45;9.48;;;;;;;;;;5049008;28;20437;-52
2023/06/21 01:53:48;;;;;;;8.90;8.20;;;;;;;;;;5051101;28;20708;-53
2023/06/21 01:56:17;;;;;;;10.17;9.17;;;;;;;;;;5051071;28;20220;-53
2023/06/21 01:58:43;;;;;;;8.70;7.90;;;;;;;;;;5051110;28;20196;-53
2023/06/21 02:01:09;;;;;;;10.30;7.93;;;;;;;;;;5051036;28;20219;-53
2023/06/21 02:03:40;;;;;;;9.47;8.60;;;;;;;;;;5059098;28;20203;-52
2023/06/21 02:06:07;;;;;;;10.23;9.13;;;;;;;;;;5070981;28;20225;-53
2023/06/21 02:08:33;;;;;;;11.33;10.43;;;;;;;;;;5069665;28;20879;-53
2023/06/21 02:11:02;;;;;;;11.93;10.83;;;;;;;;;;5070988;28;20263;-53
2023/06/21 02:13:29;;;;;;;12.83;11.57;;;;;;;;;;5071085;28;20195;-53
2023/06/21 02:15:55;;;;;;;14.05;12.85;;;;;;;;;;5062243;28;20435;-53
2023/06/21 02:18:21;;;;;;;11.07;10.18;;;;;;;;;;5049706;28;20407;-53
2023/06/21 02:20:49;;;;;;;11.98;10.95;;;;;;;;;;5049640;28;20891;-53
2023/06/21 02:23:15;;;;;;;11.83;10.83;;;;;;;;;;5051060;28;20211;-53
2023/06/21 02:25:41;;;;;;;13.02;11.82;;;;;;;;;;5049606;28;20449;-53
2023/06/21 02:28:07;;;;;;;13.95;12.75;;;;;;;;;;5049494;28;20444;-53
2023/06/21 02:30:33;;;;;;;11.30;10.30;;;;;;;;;;5050900;28;20235;-53
2023/06/21 02:32:59;;;;;;;10.47;9.67;;;;;;;;;;5050732;28;20196;-53
2023/06/21 02:35:25;;;;;;;11.80;10.67;;;;;;;;;;5050878;28;20203;-52
2023/06/21 02:37:52;;;;;;;12.40;11.35;;;;;;;;;;5049649;28;20398;-52
2023/06/21 02:40:18;;;;;;;11.50;10.20;;;;;;;;;;5050361;28;20204;-52
2023/06/21 02:42:44;;;;;;;10.40;9.60;;;;;;;;;;5069648;28;20205;-53
2023/06/21 02:45:10;;;;;;;12.17;11.07;;;;;;;;;;5070689;28;20703;-52
2023/06/21 02:47:37;;;;;;;12.73;11.60;;;;;;;;;;5070836;28;20182;-53
2023/06/21 02:50:03;;;;;;;13.15;11.88;;;;;;;;;;5069464;28;20407;-53
2023/06/21 02:52:29;;;;;;;12.63;11.63;;;;;;;;;;5070491;28;20686;-53
2023/06/21 02:54:56;;;;;;;13.07;12.03;;;;;;;;;;5051946;28;20674;-53
2023/06/21 02:57:22;;;;;;;14.50;13.03;;;;;;;;;;5050682;28;20212;-53
2023/06/21 02:59:49;;;;;;;15.85;14.45;;;;;;;;;;5049426;28;21112;-53
2023/06/21 03:02:16;;;;;;;13.50;12.40;;;;;;;;;;5050459;28;20196;-52
2023/06/21 03:04:42;;;;;;;13.33;12.23;;;;;;;;;;5053872;28;20220;-53
2023/06/21 03:07:08;;;;;;;11.93;10.93;;;;;;;;;;5065003;28;20701;-53
2023/06/21 03:09:34;;;;;;;14.30;13.00;;;;;;;;;;5074051;28;20201;-52
2023/06/21 03:12:07;;;;;;;16.75;15.35;;;;;;;;;;5072128;28;20786;-52
2023/06/21 03:14:33;;;;;;;12.50;11.40;;;;;;;;;;5074092;28;20580;-52
2023/06/21 03:17:02;;;;;;;15.03;13.73;;;;;;;;;;5073851;28;20257;-52
2023/06/21 03:19:28;;;;;;;14.55;13.40;;;;;;;;;;5068414;28;20411;-52
2023/06/21 03:21:55;;;;;;;13.90;12.70;;;;;;;;;;5073898;28;20198;-53
2023/06/21 03:24:21;;;;;;;17.05;15.55;;;;;;;;;;5072562;28;20415;-53
2023/06/21 03:26:47;;;;;;;16.17;14.87;;;;;;;;;;5072412;28;20454;-52
2023/06/21 03:29:14;;;;;;;16.30;14.95;;;;;;;;;;5072501;28;21041;-53
2023/06/21 03:31:40;;;;;;;14.67;13.13;;;;;;;;;;5071381;28;20223;-53
2023/06/21 03:34:06;;;;;;;15.37;14.00;;;;;;;;;;5073536;28;20198;-52
2023/06/21 03:36:32;;;;;;;15.80;14.40;;;;;;;;;;5066968;28;20930;-52
2023/06/21 03:38:58;;;;;;;15.23;13.93;;;;;;;;;;5053506;28;20196;-52
2023/06/21 03:41:24;;;;;;;13.60;12.40;;;;;;;;;;5053672;28;20215;-53
2023/06/21 03:43:50;;;;;;;13.90;12.77;;;;;;;;;;5053601;28;20226;-53
2023/06/21 03:46:18;;;;;;;15.43;14.15;;;;;;;;;;5052287;28;20421;-52
2023/06/21 03:48:44;;;;;;;16.90;15.32;;;;;;;;;;5056160;28;20490;-52
2023/06/21 03:51:10;;;;;;;15.60;14.27;;;;;;;;;;5072183;28;20465;-52
2023/06/21 03:53:36;;;;;;;15.18;14.05;;;;;;;;;;5072270;28;20740;-51
2023/06/21 03:56:04;;;;;;;13.63;12.53;;;;;;;;;;5072087;28;20266;-53
2023/06/21 03:58:29;;;;;;;13.27;12.07;;;;;;;;;;5073349;28;20203;-52
2023/06/21 04:00:55;;;;;;;16.90;15.50;;;;;;;;;;5071977;28;20473;-52
2023/06/21 04:03:23;;;;;;;17.17;15.75;;;;;;;;;;5071823;28;20885;-52
2023/06/21 04:05:49;;;;;;;15.18;13.93;;;;;;;;;;5071800;28;20407;-52
2023/06/21 04:08:15;;;;;;;15.07;13.82;;;;;;;;;;5053005;28;20447;-52
2023/06/21 04:10:41;;;;;;;18.60;17.05;;;;;;;;;;5051483;28;20417;-52
2023/06/21 04:13:07;;;;;;;14.10;12.90;;;;;;;;;;5051542;28;20393;-52
2023/06/21 04:15:33;;;;;;;17.10;15.60;;;;;;;;;;5052028;28;20880;-52
2023/06/21 04:17:59;;;;;;;15.03;13.80;;;;;;;;;;5069681;28;20576;-52
2023/06/21 04:20:27;;;;;;;17.27;15.67;;;;;;;;;;5052990;28;20694;-52
2023/06/21 04:22:53;;;;;;;18.23;15.70;;;;;;;;;;5053088;28;20306;-51
2023/06/21 04:25:19;;;;;;;17.63;15.90;;;;;;;;;;5052813;28;20642;-53
2023/06/21 04:27:48;;;;;;;18.60;17.13;;;;;;;;;;5051769;28;20448;-52
2023/06/21 04:30:14;;;;;;;20.83;18.73;;;;;;;;;;5052369;28;20613;-51
2023/06/21 04:32:45;;;;;;;19.13;17.53;;;;;;;;;;5063367;28;20257;-52
2023/06/21 04:35:11;;;;;;;21.97;20.00;;;;;;;;;;5069775;28;20407;-53
2023/06/21 04:37:44;;;;;;;21.33;19.23;;;;;;;;;;5052817;28;20303;-52
2023/06/21 04:40:11;;;;;;;21.03;19.23;;;;;;;;;;5052619;28;20271;-52
2023/06/21 04:42:37;;;;;;;22.37;20.00;;;;;;;;;;5051818;28;20223;-53
2023/06/21 04:45:04;;;;;;;21.27;19.40;;;;;;;;;;5052366;28;20658;-53
2023/06/21 04:47:30;;;;;;;20.73;18.85;;;;;;;;;;5051169;28;20436;-53
2023/06/21 04:49:57;;;;;;;20.55;18.83;;;;;;;;;;5051310;28;20469;-52
2023/06/21 04:52:23;;;;;;;19.77;17.83;;;;;;;;;;5069119;28;20772;-53
2023/06/21 04:54:50;;;;;;;19.80;17.90;;;;;;;;;;5072273;28;20210;-53
2023/06/21 04:57:16;;;;;;;19.75;18.05;;;;;;;;;;5071088;28;20410;-53
2023/06/21 04:59:42;;;;;;;17.52;15.93;;;;;;;;;;5070968;28;20422;-52
2023/06/21 05:02:08;;;;;;;18.85;17.13;;;;;;;;;;5065802;28;20452;-53
2023/06/21 05:04:34;;;;;;;17.90;16.33;;;;;;;;;;5050507;28;20397;-53
2023/06/21 05:07:00;;;;;;;18.42;16.73;;;;;;;;;;5050517;28;20393;-52
2023/06/21 05:09:26;;;;;;;17.67;16.07;;;;;;;;;;5050652;28;20976;-52
2023/06/21 05:11:54;;;;;;;15.48;14.07;;;;;;;;;;5057361;28;20436;-52
2023/06/21 05:14:20;;;;;;;16.33;14.73;;;;;;;;;;5069092;28;20514;-51
2023/06/21 05:16:46;;;;;;;13.77;12.50;;;;;;;;;;5071054;28;20234;-52
2023/06/21 05:19:12;;;;;;;12.77;11.57;;;;;;;;;;5071502;28;20218;-52
2023/06/21 05:21:38;;;;;;;14.00;12.80;;;;;;;;;;5068403;28;20424;-52
2023/06/21 05:24:04;;;;;;;13.80;12.70;;;;;;;;;;5070285;28;20432;-53
2023/06/21 05:26:30;;;;;;;15.63;14.32;;;;;;;;;;5069519;28;20407;-52
2023/06/21 05:28:58;;;;;;;15.20;13.80;;;;;;;;;;5070240;28;20540;-53
2023/06/21 05:31:24;;;;;;;13.80;12.55;;;;;;;;;;5068816;28;20420;-53
2023/06/21 05:33:50;;;;;;;13.43;12.32;;;;;;;;;;5050398;28;20417;-53
2023/06/21 05:36:16;;;;;;;13.55;12.35;;;;;;;;;;5059247;28;20399;-53
2023/06/21 05:38:42;;;;;;;13.18;11.98;;;;;;;;;;5066308;28;20457;-52
2023/06/21 05:41:08;;;;;;;14.40;13.10;;;;;;;;;;5065121;28;20816;-51
2023/06/21 05:43:34;;;;;;;14.70;13.50;;;;;;;;;;5067295;28;20411;-52
2023/06/21 05:46:01;;;;;;;13.27;12.07;;;;;;;;;;5052890;28;20957;-52
2023/06/21 05:48:29;;;;;;;13.65;12.50;;;;;;;;;;5070287;28;20818;-52
2023/06/21 05:50:55;;;;;;;14.90;13.60;;;;;;;;;;5070381;28;20411;-52
2023/06/21 05:53:21;;;;;;;13.83;12.63;;;;;;;;;;5063405;28;20435;-52
2023/06/21 05:55:47;;;;;;;12.75;11.50;;;;;;;;;;5050335;28;20927;-53
2023/06/21 05:58:13;;;;;;;15.38;13.95;;;;;;;;;;5050072;28;20397;-53
2023/06/21 06:00:39;;;;;;;14.65;13.45;;;;;;;;;;5050160;28;20429;-54
2023/06/21 06:03:08;;;;;;;10.60;9.70;;;;;;;;;;5050176;28;20475;-53
2023/06/21 06:05:34;;;;;;;11.23;10.23;;;;;;;;;;5051309;28;20421;-54
2023/06/21 06:08:00;;;;;;;11.27;10.18;;;;;;;;;;5049959;28;20405;-53
2023/06/21 06:10:26;;;;;;;10.07;9.17;;;;;;;;;;5050000;28;20487;-54
2023/06/21 06:12:52;;;;;;;12.43;11.32;;;;;;;;;;5049747;28;20410;-53
2023/06/21 06:15:18;;;;;;;11.02;9.93;;;;;;;;;;5053552;28;20417;-53
2023/06/21 06:17:46;;;;;;;11.77;10.68;;;;;;;;;;5067063;28;20413;-54
2023/06/21 06:20:14;;;;;;;9.73;8.73;;;;;;;;;;5069056;28;20219;-54
2023/06/21 06:22:40;;;;;;;11.40;10.43;;;;;;;;;;5071371;28;20192;-53
2023/06/21 06:25:06;;;;;;;10.20;9.17;;;;;;;;;;5059650;28;20604;-53
2023/06/21 06:27:32;;;;;;;10.00;9.10;;;;;;;;;;5051484;28;20535;-53
2023/06/21 06:29:58;;;;;;;10.70;9.70;;;;;;;;;;5051087;28;20215;-53
2023/06/21 06:32:26;;;;;;;11.43;10.43;;;;;;;;;;5061264;28;20770;-53
2023/06/21 06:34:53;;;;;;;11.40;10.27;;;;;;;;;;5060473;28;22026;-53
2023/06/21 06:37:21;;;;;;;8.87;8.17;;;;;;;;;;5062856;28;20200;-53
2023/06/21 06:39:47;;;;;;;11.00;10.00;;;;;;;;;;5054972;28;20205;-53
2023/06/21 06:42:13;;;;;;;10.33;9.33;;;;;;;;;;5054957;28;20200;-54
2023/06/21 06:44:39;;;;;;;8.43;7.83;;;;;;;;;;5074524;28;20581;-53
2023/06/21 06:47:05;;;;;;;10.10;9.10;;;;;;;;;;5072872;28;20220;-53
2023/06/21 06:49:31;;;;;;;9.10;8.40;;;;;;;;;;5074759;28;20660;-54
2023/06/21 06:51:57;;;;;;;7.90;7.20;;;;;;;;;;5074789;28;20706;-53
2023/06/21 06:54:25;;;;;;;8.17;7.47;;;;;;;;;;5060230;28;20204;-53
2023/06/21 06:56:51;;;;;;;8.77;7.87;;;;;;;;;;5053968;28;20289;-53
2023/06/21 06:59:17;;;;;;;7.37;6.67;;;;;;;;;;5054739;28;20197;-53
2023/06/21 07:01:44;;;;;;;8.37;7.43;;;;;;;;;;5054739;28;20267;-53
2023/06/21 07:04:10;;;;;;;6.83;5.87;;;;;;;;;;5054476;28;20667;-54
2023/06/21 07:06:35;;;;;;;8.13;7.33;;;;;;;;;;5054114;28;20295;-54
2023/06/21 07:09:02;;;;;;;9.47;7.50;;;;;;;;;;5074560;28;20616;-53
2023/06/21 07:11:29;;;;;;;8.27;7.53;;;;;;;;;;5070464;28;20294;-54
2023/06/21 07:13:55;;;;;;;7.10;6.40;;;;;;;;;;5074717;28;20234;-54
2023/06/21 07:16:21;;;;;;;8.17;7.47;;;;;;;;;;5074468;28;20566;-53
2023/06/21 07:18:47;;;;;;;8.90;8.10;;;;;;;;;;5073023;28;20586;-53
2023/06/21 07:21:17;;;;;;;8.60;7.80;;;;;;;;;;5074459;28;20299;-55
2023/06/21 07:23:42;;;;;;;7.77;7.17;;;;;;;;;;5057319;28;20211;-55
2023/06/21 07:26:09;;;;;;;8.60;7.73;;;;;;;;;;5054249;28;20244;-55
2023/06/21 07:28:39;;;;;;;8.23;7.43;;;;;;;;;;5055027;28;20222;-55
2023/06/21 07:31:05;;;;;;;6.57;5.97;;;;;;;;;;5054144;28;20303;-55
2023/06/21 07:33:32;;;;;;;8.37;7.50;;;;;;;;;;5059688;28;20197;-55
2023/06/21 07:35:58;;;;;;;7.57;6.83;;;;;;;;;;5054152;28;20205;-52
2023/06/21 07:38:24;;;;;;;8.67;7.87;;;;;;;;;;5062987;28;20217;-52
2023/06/21 07:40:49;;;;;;;8.70;7.23;;;;;;;;;;5074131;28;20203;-53
2023/06/21 07:43:15;;;;;;;8.80;7.57;;;;;;;;;;5061702;28;20234;-53
2023/06/21 07:45:43;;;;;;;8.33;7.63;;;;;;;;;;5061906;28;20205;-53
2023/06/21 07:48:09;;;;;;;8.13;6.73;;;;;;;;;;5067885;28;20197;-53
2023/06/21 07:50:35;;;;;;;6.83;6.27;;;;;;;;;;5066681;28;20203;-53
2023/06/21 07:53:01;;;;;;;8.70;7.90;;;;;;;;;;5059911;28;20226;-53
2023/06/21 07:55:27;;;;;;;7.80;7.03;;;;;;;;;;5068178;28;20199;-53
2023/06/21 07:57:53;;;;;;;9.20;6.37;;;;;;;;;;5073392;28;20250;-53
2023/06/21 08:00:19;;;;;;;6.67;6.17;;;;;;;;;;5066106;28;20258;-53
2023/06/21 08:02:51;;;;;;;6.97;6.37;;;;;;;;;;5055692;28;20193;-53
2023/06/21 08:05:17;;;;;;;6.80;6.00;;;;;;;;;;5056250;28;20274;-53
2023/06/21 08:07:43;;;;;;;6.20;5.60;;;;;;;;;;5072414;28;20660;-53
2023/06/21 08:10:09;;;;;;;6.10;5.60;;;;;;;;;;5072410;28;20219;-53
2023/06/21 08:12:35;;;;;;;6.23;4.93;;;;;;;;;;5070113;28;20268;-53
2023/06/21 08:15:02;;;;;;;5.20;4.70;;;;;;;;;;5072313;28;20667;-53
2023/06/21 08:17:28;;;;;;;6.13;5.53;;;;;;;;;;5072280;28;20186;-53
2023/06/21 08:19:56;;;;;;;7.20;5.50;;;;;;;;;;5072309;28;20231;-53
2023/06/21 08:22:22;;;;;;;6.37;5.77;;;;;;;;;;5070046;28;20557;-53
2023/06/21 08:24:48;;;;;;;5.27;4.77;;;;;;;;;;5071892;28;20207;-54
2023/06/21 08:27:14;;;;;;;5.20;4.80;;;;;;;;;;5071934;28;20202;-54
2023/06/21 08:29:40;;;;;;;6.37;4.90;;;;;;;;;;5071966;28;20287;-55
2023/06/21 08:32:06;;;;;;;4.77;4.33;;;;;;;;;;5071784;28;20320;-55
2023/06/21 08:34:32;;;;;;;5.83;4.50;;;;;;;;;;5053007;28;20256;-55
2023/06/21 08:37:00;;;;;;;4.73;4.30;;;;;;;;;;5051821;28;20633;-55
2023/06/21 08:39:26;;;;;;;5.00;4.17;;;;;;;;;;5051447;28;20501;-54
2023/06/21 08:41:52;;;;;;;5.00;4.33;;;;;;;;;;5051918;28;20199;-55
2023/06/21 08:44:18;;;;;;;4.33;3.93;;;;;;;;;;5062902;28;20242;-55
2023/06/21 08:46:47;;;;;;;5.00;4.60;;;;;;;;;;5070961;28;20626;-55
2023/06/21 08:49:16;;;;;;;4.50;4.10;;;;;;;;;;5052300;28;20210;-55
2023/06/21 08:51:43;;;;;;;4.60;4.20;;;;;;;;;;5051701;28;20636;-54
2023/06/21 08:54:11;;;;;;;4.50;4.10;;;;;;;;;;5051572;28;20206;-54
2023/06/21 08:56:40;;;;;;;4.80;4.17;;;;;;;;;;5051420;28;20218;-54
2023/06/21 08:59:06;;;;;;;4.73;4.33;;;;;;;;;;5064563;28;20240;-54
2023/06/21 09:01:35;;;;;;;5.57;4.20;;;;;;;;;;5069451;28;20353;-54
2023/06/21 09:04:03;;;;;;;4.73;4.33;;;;;;;;;;5051115;28;20216;-54
2023/06/21 09:06:29;;;;;;;3.87;3.57;;;;;;;;;;5051424;28;20201;-54
2023/06/21 09:08:55;;;;;;;4.37;4.00;;;;;;;;;;5051590;28;20195;-54
2023/06/21 09:11:23;;;;;;;4.33;4.00;;;;;;;;;;5057756;28;20225;-54
2023/06/21 09:13:49;;;;;;;5.53;4.37;;;;;;;;;;5059202;28;20216;-54
2023/06/21 09:16:15;;;;;;;4.37;3.60;;;;;;;;;;5070478;28;20196;-55
2023/06/21 09:18:43;;;;;;;3.90;3.60;;;;;;;;;;5052448;28;20200;-54
2023/06/21 09:21:09;;;;;;;3.50;3.20;;;;;;;;;;5048192;28;20613;-54
2023/06/21 09:23:35;;;;;;;3.97;3.60;;;;;;;;;;5066248;28;20207;-55
2023/06/21 09:26:02;;;;;;;3.60;3.30;;;;;;;;;;5064116;28;20250;-55
2023/06/21 09:28:30;;;;;;;4.13;3.83;;;;;;;;;;5051950;28;20696;-54
2023/06/21 09:30:57;;;;;;;4.03;3.60;;;;;;;;;;5052047;28;20275;-54
2023/06/21 09:33:24;;;;;;;5.07;3.63;;;;;;;;;;5051246;28;20226;-54
2023/06/21 09:35:50;;;;;;;4.57;3.50;;;;;;;;;;5062823;28;20202;-54
2023/06/21 09:38:20;;;;;;;3.73;3.43;;;;;;;;;;5052154;28;20257;-54
2023/06/21 09:40:46;;;;;;;4.10;3.80;;;;;;;;;;5051921;28;20202;-55
2023/06/21 09:43:12;;;;;;;4.57;4.00;;;;;;;;;;5051687;28;20566;-54
2023/06/21 09:45:40;;;;;;;4.37;3.97;;;;;;;;;;5061686;28;20211;-55
2023/06/21 09:48:06;;;;;;;5.00;4.00;;;;;;;;;;5070508;28;20268;-54
2023/06/21 09:50:32;;;;;;;4.37;3.97;;;;;;;;;;5069602;28;20226;-55
2023/06/21 09:52:58;;;;;;;4.30;3.83;;;;;;;;;;5052336;28;20227;-55
2023/06/21 09:55:25;;;;;;;4.00;3.70;;;;;;;;;;5051554;28;20669;-55
2023/06/21 09:57:52;;;;;;;3.73;3.43;;;;;;;;;;5051592;28;20305;-54
2023/06/21 10:00:18;;;;;;;3.83;3.53;;;;;;;;;;5064061;28;20269;-55
2023/06/21 10:02:46;;;;;;;4.30;3.73;;;;;;;;;;5058015;28;20274;-55
2023/06/21 10:05:18;;;;;;;4.10;3.33;;;;;;;;;;5071443;28;20676;-54
2023/06/21 10:07:44;;;;;;;3.73;3.43;;;;;;;;;;5071403;28;20279;-55
2023/06/21 10:10:10;;;;;;;4.50;3.77;;;;;;;;;;5069304;28;20273;-55
2023/06/21 10:12:36;;;;;;;3.50;3.20;;;;;;;;;;5061201;28;20224;-55
2023/06/21 10:15:03;;;;;;;4.17;3.67;;;;;;;;;;5055771;28;20199;-55
2023/06/21 10:17:30;;;;;;;4.27;3.30;;;;;;;;;;5055557;28;20201;-55
2023/06/21 10:19:58;;;;;;;4.00;3.60;;;;;;;;;;5065136;28;20235;-54
2023/06/21 10:22:25;;;;;;;5.30;3.40;;;;;;;;;;5072027;28;20680;-55
2023/06/21 10:24:51;;;;;;;3.57;3.27;;;;;;;;;;5065468;28;20232;-55
2023/06/21 10:27:18;;;;;;;3.70;3.40;;;;;;;;;;5055190;28;20211;-54
2023/06/21 10:29:45;;;;;;;3.73;3.43;;;;;;;;;;5055522;28;20236;-55
2023/06/21 10:32:11;;;;;;;3.83;3.37;;;;;;;;;;5062202;28;20221;-55
2023/06/21 10:34:44;;;;;;;3.40;3.10;;;;;;;;;;5073175;28;20202;-55
2023/06/21 10:37:20;;;;;;;3.90;3.50;;;;;;;;;;5075201;28;20672;-55
2023/06/21 10:39:48;;;;;;;3.50;3.20;;;;;;;;;;5075290;28;20208;-55
2023/06/21 10:42:14;;;;;;;3.87;3.47;;;;;;;;;;5073540;28;20629;-55
2023/06/21 10:44:41;;;;;;;4.10;3.70;;;;;;;;;;5059086;28;20634;-54
2023/06/21 10:47:07;;;;;;;3.97;3.60;;;;;;;;;;5054964;28;20205;-55
2023/06/21 10:49:33;;;;;;;4.00;3.70;;;;;;;;;;5054944;28;20666;-55
2023/06/21 10:52:00;;;;;;;3.93;3.50;;;;;;;;;;5068689;28;20219;-55
2023/06/21 10:54:28;;;;;;;4.47;4.07;;;;;;;;;;5070568;28;20201;-55
2023/06/21 10:56:54;;;;;;;4.23;3.80;;;;;;;;;;5074882;28;20229;-55
2023/06/21 10:59:23;;;;;;;4.37;3.90;;;;;;;;;;5061635;28;20250;-55
2023/06/21 11:01:50;;;;;;;4.40;4.00;;;;;;;;;;5057093;28;20278;-55
2023/06/21 11:04:15;;;;;;;5.57;3.93;;;;;;;;;;5073735;28;20283;-55
2023/06/21 11:06:43;;;;;;;4.53;4.13;;;;;;;;;;5074759;28;20198;-55
2023/06/21 11:09:12;;;;;;;4.23;3.93;;;;;;;;;;5072762;28;20351;-55
2023/06/21 11:11:40;;;;;;;4.63;4.23;;;;;;;;;;5072137;28;20262;-55
2023/06/21 11:14:07;;;;;;;4.60;4.20;;;;;;;;;;5053008;28;20352;-54
2023/06/21 11:16:35;;;;;;;5.43;4.97;;;;;;;;;;5053358;28;20196;-54
2023/06/21 11:19:03;;;;;;;4.80;4.40;;;;;;;;;;5054514;28;20200;-55
2023/06/21 11:21:41;;;;;;;5.10;4.70;;;;;;;;;;5054312;28;20210;-55
2023/06/21 11:24:08;;;;;;;5.57;5.07;;;;;;;;;;5053076;28;20195;-55
2023/06/21 11:26:53;;;;;;;6.10;5.03;;;;;;;;;;5053532;28;20247;-55
2023/06/21 11:29:21;;;;;;;5.63;5.00;;;;;;;;;;5056611;28;20196;-55
2023/06/21 11:31:47;;;;;;;5.13;4.57;;;;;;;;;;5053966;28;20255;-55
2023/06/21 11:34:22;;;;;;;5.13;4.73;;;;;;;;;;5068286;28;20202;-55
2023/06/21 11:36:49;;;;;;;5.27;4.80;;;;;;;;;;5074423;28;20623;-55
2023/06/21 11:39:24;;;;;;;4.87;4.47;;;;;;;;;;5072231;28;20199;-55
2023/06/21 11:42:10;;;;;;;6.00;5.50;;;;;;;;;;5071723;28;20645;-55
2023/06/21 11:44:38;;;;;;;5.27;4.77;;;;;;;;;;5061083;28;20290;-55
2023/06/21 11:47:14;;;;;;;5.37;4.97;;;;;;;;;;5053922;28;20214;-55
2023/06/21 11:49:45;;;;;;;5.30;4.90;;;;;;;;;;5054053;28;20286;-55
2023/06/21 11:52:13;;;;;;;6.00;5.40;;;;;;;;;;5054699;28;20224;-55
2023/06/21 11:54:39;;;;;;;5.40;5.00;;;;;;;;;;5054064;28;20204;-55
2023/06/21 11:57:05;;;;;;;5.30;4.90;;;;;;;;;;5054212;28;20246;-55
2023/06/21 11:59:32;;;;;;;5.20;4.80;;;;;;;;;;5053726;28;20250;-55
2023/06/21 12:02:11;;;;;;;5.73;5.33;;;;;;;;;;5054411;28;20288;-55
2023/06/21 12:04:38;;;;;;;5.93;5.30;;;;;;;;;;5065524;28;20223;-55
2023/06/21 12:07:04;;;;;;;5.87;5.37;;;;;;;;;;5073473;28;20269;-54
2023/06/21 12:09:31;;;;;;;5.10;4.70;;;;;;;;;;5073483;28;20201;-54
2023/06/21 12:11:57;;;;;;;5.57;5.17;;;;;;;;;;5067889;28;20257;-54
2023/06/21 12:14:23;;;;;;;5.20;4.77;;;;;;;;;;5057573;28;20194;-54
2023/06/21 12:16:50;;;;;;;6.33;5.83;;;;;;;;;;5073309;28;20209;-54
2023/06/21 12:19:21;;;;;;;5.83;5.37;;;;;;;;;;5073148;28;20319;-54
2023/06/21 12:21:47;;;;;;;5.03;4.63;;;;;;;;;;5070955;28;20672;-53
2023/06/21 12:24:13;;;;;;;5.60;5.10;;;;;;;;;;5054722;28;20636;-54
2023/06/21 12:26:48;;;;;;;4.93;4.53;;;;;;;;;;5064170;28;20763;-54
2023/06/21 12:29:14;;;;;;;5.30;4.80;;;;;;;;;;5064195;28;20202;-54
2023/06/21 12:31:43;;;;;;;5.13;4.73;;;;;;;;;;5053522;28;20324;-54
2023/06/21 12:34:14;;;;;;;5.57;5.00;;;;;;;;;;5070926;28;20199;-54
2023/06/21 12:36:43;;;;;;;5.50;5.00;;;;;;;;;;5056936;28;20666;-54
2023/06/21 12:39:09;;;;;;;5.30;4.80;;;;;;;;;;5052799;28;20207;-54
2023/06/21 12:41:37;;;;;;;8.07;4.63;;;;;;;;;;5052627;28;20268;-53
2023/06/21 12:44:06;;;;;;;4.80;4.40;;;;;;;;;;5052668;28;20214;-54
2023/06/21 12:46:36;;;;;;;4.50;4.10;;;;;;;;;;5053070;28;20230;-54
2023/06/21 12:49:02;;;;;;;4.20;3.90;;;;;;;;;;5070098;28;20210;-54
2023/06/21 12:51:29;;;;;;;4.20;3.90;;;;;;;;;;5072324;28;20633;-53
2023/06/21 12:53:58;;;;;;;4.50;4.10;;;;;;;;;;5056048;28;20212;-53
2023/06/21 12:56:26;;;;;;;4.37;4.00;;;;;;;;;;5055395;28;20693;-53
2023/06/21 12:58:52;;;;;;;4.40;4.00;;;;;;;;;;5066475;28;20213;-54
2023/06/21 13:01:18;;;;;;;4.77;4.37;;;;;;;;;;5072320;28;20210;-53
2023/06/21 13:03:45;;;;;;;4.30;4.00;;;;;;;;;;5070789;28;20693;-53
2023/06/21 13:06:11;;;;;;;4.37;4.00;;;;;;;;;;5072359;28;20240;-53
2023/06/21 13:08:37;;;;;;;4.83;3.73;;;;;;;;;;5063064;28;20203;-54
2023/06/21 13:11:08;;;;;;;4.30;3.63;;;;;;;;;;5060051;28;20747;-53
2023/06/21 13:13:34;;;;;;;3.97;3.67;;;;;;;;;;5055133;28;20262;-54
2023/06/21 13:16:00;;;;;;;3.30;3.10;;;;;;;;;;5063337;28;20656;-53
2023/06/21 13:18:29;;;;;;;4.73;3.80;;;;;;;;;;5062461;28;20198;-53
2023/06/21 13:20:57;;;;;;;4.27;3.80;;;;;;;;;;5052428;28;20213;-53
2023/06/21 13:23:23;;;;;;;3.70;3.40;;;;;;;;;;5052271;28;20256;-54
2023/06/21 13:25:50;;;;;;;3.80;3.50;;;;;;;;;;5051985;28;20243;-54
2023/06/21 13:28:17;;;;;;;4.67;4.10;;;;;;;;;;5057516;28;20202;-54
2023/06/21 13:30:43;;;;;;;4.50;4.07;;;;;;;;;;5055540;28;20209;-53
2023/06/21 13:33:09;;;;;;;4.73;4.33;;;;;;;;;;5062025;28;20223;-53
2023/06/21 13:35:35;;;;;;;4.27;3.87;;;;;;;;;;5070296;28;20256;-55
2023/06/21 13:38:03;;;;;;;4.00;3.70;;;;;;;;;;5060789;28;20199;-55
2023/06/21 13:40:28;;;;;;;4.47;4.13;;;;;;;;;;5070900;28;20209;-55
2023/06/21 13:42:54;;;;;;;4.70;4.30;;;;;;;;;;5071934;28;20589;-53
2023/06/21 13:45:22;;;;;;;5.20;4.43;;;;;;;;;;5053341;28;20208;-55
2023/06/21 13:47:48;;;;;;;4.97;4.57;;;;;;;;;;5057306;28;20781;-55
2023/06/21 13:50:14;;;;;;;4.13;3.73;;;;;;;;;;5071302;28;20682;-54
2023/06/21 13:52:40;;;;;;;4.33;4.03;;;;;;;;;;5071984;28;20227;-54
2023/06/21 13:55:10;;;;;;;4.43;4.00;;;;;;;;;;5071856;28;20676;-55
2023/06/21 13:57:40;;;;;;;4.30;4.00;;;;;;;;;;5068320;28;20204;-55
2023/06/21 14:00:08;;;;;;;4.33;3.93;;;;;;;;;;5069087;28;20271;-55
2023/06/21 14:02:36;;;;;;;4.63;4.23;;;;;;;;;;5063977;28;20264;-55
2023/06/21 14:05:02;;;;;;;6.00;3.70;;;;;;;;;;5071652;28;20267;-55
2023/06/21 14:07:28;;;;;;;4.20;3.80;;;;;;;;;;5070404;28;20673;-55
2023/06/21 14:09:54;;;;;;;4.43;3.90;;;;;;;;;;5053098;28;20203;-54
2023/06/21 14:12:20;;;;;;;4.33;3.97;;;;;;;;;;5051283;28;20758;-54
2023/06/21 14:14:46;;;;;;;5.60;4.50;;;;;;;;;;5051332;28;20203;-55
2023/06/21 14:17:12;;;;;;;6.20;4.67;;;;;;;;;;5051462;28;20215;-54
2023/06/21 14:19:40;;;;;;;4.67;3.93;;;;;;;;;;5061231;28;20548;-54
2023/06/21 14:22:08;;;;;;;4.93;4.43;;;;;;;;;;5071609;28;20224;-55
2023/06/21 14:24:34;;;;;;;4.20;3.80;;;;;;;;;;5071440;28;20722;-55
2023/06/21 14:27:00;;;;;;;4.30;3.90;;;;;;;;;;5071173;28;20263;-54
2023/06/21 14:29:26;;;;;;;4.20;3.80;;;;;;;;;;5061592;28;20200;-54
2023/06/21 14:31:52;;;;;;;6.03;3.77;;;;;;;;;;5051320;28;20220;-55
2023/06/21 14:34:18;;;;;;;7.63;4.47;;;;;;;;;;5051205;28;20196;-54